Accueil
METAR-TAF:

METAR-TAF

Aéroports :

Laupheim, Allemagne

latitude: 48-13N, longitude: 009-55E, altitude: 538 m

Observation

Le bulletin a été fait il y a 41 minutes, à 16:20 UTC
Vent 9 kt de sud-ouest
Température 21°C
Humidité 64%
Pression 1016 hPa
Visibilité 10 km ou plus
Quelques nuages à une hauteur de 2500 ft

METAR: ETHL 281620Z 22009KT 9999 FEW025 21/14 Q1016 BLU+

Heure: 19:01 (17:01 UTC)

Prévision

Le bulletin a été fait il y a 3 heures et 51 minutes, à 13:10 UTC
Prévision valable du 28 à 14 UTC au 28 à 23 UTC
Vent 10 kt de sud-ouest
Visibilité 10 km ou plus
Quelques nuages à une hauteur de 3000 ft
Nuages épars à une hauteur de 6000 ft

TAF: ETHL 281310Z 2814/2823 22010KT 9999 NSW FEW030 SCT060

Observations et prévisions météorologiques de plus de 4000 aéroports (messages METAR et TAF).

Les stations disponibles sont représentées par des disques jaunes et rouges sur la carte.

Passer la souris dessus pour voir le nom de la station.

Cliquer dessus pour voir les observations et prévisions météorologiques.

Pour changer de carte: cliquez sur les boutons verts avec une croix noire pour zoomer, sur le bouton vert avec un tiret pour effectuer un zoom arrière, ou sur les flèches vertes pour les cartes adjacentes.


METAR-TAF: